createdAt,value
2018-08-22T00:01:19.832Z,56.50
2018-08-22T00:03:48.554Z,54.23
2018-08-22T00:06:17.230Z,44.07
2018-08-22T00:08:46.805Z,52.33
2018-08-22T00:11:15.221Z,48.03
2018-08-22T00:13:53.094Z,50.27
2018-08-22T00:16:27.926Z,53.83
2018-08-22T00:19:07.661Z,53.13
2018-08-22T00:21:38.173Z,46.50
2018-08-22T00:24:07.869Z,41.90
2018-08-22T00:26:38.334Z,48.23
2018-08-22T00:29:08.130Z,47.07
2018-08-22T00:31:36.647Z,53.47
2018-08-22T00:34:05.326Z,48.20
2018-08-22T00:36:34.917Z,46.87
2018-08-22T00:39:08.394Z,49.13
2018-08-22T00:41:47.376Z,46.27
2018-08-22T00:44:17.862Z,48.10
2018-08-22T00:46:49.938Z,53.43
2018-08-22T00:49:23.863Z,55.67
2018-08-22T00:52:09.753Z,53.40
2018-08-22T00:54:44.219Z,50.17
2018-08-22T00:57:29.559Z,51.30
2018-08-22T01:00:12.367Z,55.53
2018-08-22T01:02:44.228Z,56.50
2018-08-22T01:05:24.506Z,58.10
2018-08-22T01:07:55.080Z,57.23
2018-08-22T01:10:28.937Z,59.33
2018-08-22T01:13:01.306Z,57.87
2018-08-22T01:15:31.277Z,55.10
2018-08-22T01:17:59.896Z,58.37
2018-08-22T01:20:28.959Z,66.13
2018-08-22T01:22:57.601Z,53.90
2018-08-22T01:25:26.286Z,51.93
2018-08-22T01:27:54.999Z,46.43
2018-08-22T01:30:23.741Z,48.57
2018-08-22T01:32:52.329Z,60.73
2018-08-22T01:35:20.717Z,59.30
2018-08-22T01:38:00.481Z,60.07
2018-08-22T01:40:31.327Z,65.23
2018-08-22T01:42:59.987Z,59.80
2018-08-22T01:45:30.605Z,63.63
2018-08-22T01:48:03.198Z,71.73
2018-08-22T01:50:50.018Z,67.80
2018-08-22T01:53:19.646Z,69.10
2018-08-22T01:56:06.460Z,69.30
2018-08-22T01:58:36.090Z,71.80
2018-08-22T02:01:08.743Z,67.77
2018-08-22T02:03:44.160Z,70.97
2018-08-22T02:06:14.695Z,71.73
2018-08-22T02:08:54.105Z,70.70
2018-08-22T02:11:26.540Z,68.40
2018-08-22T02:14:00.178Z,72.20
2018-08-22T02:16:40.547Z,73.60
2018-08-22T02:19:10.070Z,65.00
2018-08-22T02:21:43.088Z,69.77
2018-08-22T02:27:12.060Z,69.53
2018-08-22T02:29:58.283Z,77.13
2018-08-22T02:32:27.922Z,67.67
2018-08-22T02:35:04.272Z,73.60
2018-08-22T02:37:36.722Z,72.80
2018-08-22T02:40:10.991Z,71.43
2018-08-22T02:42:45.728Z,69.50
2018-08-22T02:45:30.670Z,72.10
2018-08-22T02:48:06.721Z,69.17
2018-08-22T02:50:35.116Z,64.70
2018-08-22T02:53:04.758Z,68.77
2018-08-22T02:55:33.391Z,70.70
2018-08-22T02:58:04.012Z,64.00
2018-08-22T03:00:32.633Z,69.30
2018-08-22T03:03:04.401Z,64.73
2018-08-22T03:05:34.000Z,71.30
2018-08-22T03:08:16.780Z,78.23
2018-08-22T03:10:57.489Z,68.20
2018-08-22T03:13:42.125Z,64.13
2018-08-22T03:16:22.192Z,67.07
2018-08-22T03:18:52.830Z,70.83
2018-08-22T03:21:33.126Z,64.53
2018-08-22T03:24:07.318Z,61.00
2018-08-22T03:26:59.661Z,63.63
2018-08-22T03:29:33.284Z,62.33
2018-08-22T03:32:12.705Z,55.53
2018-08-22T03:34:43.282Z,48.00
2018-08-22T03:37:15.288Z,45.07
2018-08-22T03:39:48.253Z,45.03
2018-08-22T03:42:20.330Z,47.07
2018-08-22T03:44:52.395Z,48.03
2018-08-22T03:47:33.127Z,46.10
2018-08-22T03:50:07.699Z,51.77
2018-08-22T03:52:47.080Z,45.60
2018-08-22T03:55:21.909Z,48.00
2018-08-22T03:57:53.083Z,51.00
2018-08-22T04:00:22.644Z,52.83
2018-08-22T04:02:51.464Z,56.30
2018-08-22T04:05:20.921Z,53.73
2018-08-22T04:07:51.177Z,49.97
2018-08-22T04:10:31.222Z,60.43
2018-08-22T04:13:01.742Z,60.17
2018-08-22T04:15:31.437Z,62.83
2018-08-22T04:18:03.437Z,60.23
2018-08-22T04:20:32.190Z,57.23
2018-08-22T04:23:02.621Z,56.97
2018-08-22T04:25:33.237Z,60.03
2018-08-22T04:28:06.512Z,59.60
2018-08-22T04:30:38.480Z,61.80
2018-08-22T04:33:06.935Z,60.20
2018-08-22T04:35:35.598Z,53.43
2018-08-22T04:38:09.520Z,60.53
2018-08-22T04:40:42.490Z,53.03
2018-08-22T04:43:14.303Z,53.00
2018-08-22T04:45:42.987Z,51.47
2018-08-22T04:48:15.693Z,52.23
2018-08-22T04:50:46.516Z,60.53
2018-08-22T04:53:19.502Z,56.80
2018-08-22T04:55:51.291Z,61.40
2018-08-22T04:58:20.946Z,52.70
2018-08-22T05:00:49.571Z,56.97
2018-08-22T05:03:21.965Z,54.13
2018-08-22T05:05:50.627Z,56.47
2018-08-22T05:08:24.490Z,56.77
2018-08-22T05:10:54.184Z,59.40
2018-08-22T05:13:27.094Z,51.47
2018-08-22T05:15:56.837Z,53.23
2018-08-22T05:18:25.499Z,56.37
2018-08-22T05:20:54.509Z,53.10
2018-08-22T05:23:26.861Z,55.37
2018-08-22T05:25:55.605Z,54.33
2018-08-22T05:28:26.342Z,52.70
2018-08-22T05:30:55.878Z,57.60
2018-08-22T05:33:25.558Z,62.07
2018-08-22T05:35:55.127Z,54.27
2018-08-22T05:38:30.871Z,56.43
2018-08-22T05:41:04.494Z,57.77
2018-08-22T05:43:33.241Z,59.57
2018-08-22T05:46:02.758Z,57.00
2018-08-22T05:48:32.442Z,63.07
2018-08-22T05:51:02.208Z,57.87
2018-08-22T05:53:31.604Z,59.07
2018-08-22T05:56:00.280Z,60.83
2018-08-22T05:58:29.103Z,56.63
2018-08-22T06:00:57.638Z,57.00
2018-08-22T06:03:27.299Z,56.70
2018-08-22T06:05:56.024Z,59.43
2018-08-22T06:08:27.762Z,58.70
2018-08-22T06:10:59.466Z,57.97
2018-08-22T06:13:34.102Z,53.43
2018-08-22T06:16:04.493Z,52.17
2018-08-22T06:18:34.174Z,51.73
2018-08-22T06:21:05.984Z,60.47
2018-08-22T06:23:34.570Z,55.83
2018-08-22T06:26:04.248Z,51.33
2018-08-22T06:28:57.143Z,54.40
2018-08-22T06:31:31.032Z,55.00
2018-08-22T06:33:59.727Z,53.47
2018-08-22T06:36:28.489Z,52.00
2018-08-22T06:38:57.246Z,53.03
2018-08-22T06:41:25.748Z,51.77
2018-08-22T06:43:57.582Z,50.23
2018-08-22T06:46:32.667Z,46.60
2018-08-22T06:49:07.525Z,48.87
2018-08-22T06:51:42.036Z,45.20
2018-08-22T06:54:11.869Z,44.53
2018-08-22T06:56:45.323Z,43.90
2018-08-22T06:59:14.002Z,44.30
2018-08-22T07:01:48.203Z,46.70
2018-08-22T07:04:34.923Z,38.87
2018-08-22T07:07:17.480Z,40.80
2018-08-22T07:09:56.627Z,39.60
2018-08-22T07:12:27.210Z,40.87
2018-08-22T07:15:00.022Z,35.73
2018-08-22T07:17:33.727Z,38.60
2018-08-22T07:20:08.855Z,37.83
2018-08-22T07:22:51.050Z,36.37
2018-08-22T07:25:28.816Z,36.37
2018-08-22T07:28:16.665Z,34.57
2018-08-22T07:30:51.328Z,33.63
2018-08-22T07:33:34.558Z,27.83
2018-08-22T07:36:19.022Z,30.23
2018-08-22T07:39:05.526Z,29.37
2018-08-22T07:41:39.362Z,29.67
2018-08-22T07:44:20.072Z,29.13
2018-08-22T07:46:49.820Z,32.33
2018-08-22T07:49:19.504Z,29.43
2018-08-22T07:51:48.082Z,26.77
2018-08-22T07:54:16.716Z,27.50
2018-08-22T07:56:45.612Z,27.30
2018-08-22T07:59:15.778Z,25.80
2018-08-22T08:01:49.038Z,25.37
2018-08-22T08:04:19.656Z,24.30
2018-08-22T08:07:02.852Z,23.20
2018-08-22T08:09:31.506Z,25.53
2018-08-22T08:12:07.465Z,27.87
2018-08-22T08:17:28.954Z,25.87
2018-08-22T08:19:57.624Z,23.43
2018-08-22T08:22:32.780Z,23.53
2018-08-22T08:25:39.542Z,23.93
2018-08-22T08:28:07.903Z,22.37
2018-08-22T08:30:50.450Z,30.17
2018-08-22T08:33:24.508Z,31.43
2018-08-22T08:36:08.332Z,29.83
2018-08-22T08:38:42.488Z,29.70
2018-08-22T08:41:15.126Z,33.00
2018-08-22T08:43:47.975Z,30.93
2018-08-22T08:46:17.566Z,33.60
2018-08-22T08:48:47.213Z,35.93
2018-08-22T08:51:16.918Z,36.13
2018-08-22T08:53:46.386Z,39.27
2018-08-22T08:56:17.753Z,34.97
2018-08-22T08:58:47.169Z,37.70
2018-08-22T09:01:16.776Z,36.03
2018-08-22T09:03:51.731Z,33.73
2018-08-22T09:06:22.291Z,35.70
2018-08-22T09:08:55.468Z,32.53
2018-08-22T09:11:24.105Z,32.43
2018-08-22T09:13:56.436Z,32.90
2018-08-22T09:16:26.096Z,32.80
2018-08-22T09:18:55.092Z,38.40
2018-08-22T09:21:23.853Z,33.73
2018-08-22T09:23:52.472Z,32.87
2018-08-22T09:26:26.726Z,39.00
2018-08-22T09:28:58.808Z,27.83
2018-08-22T09:31:27.491Z,30.03
2018-08-22T09:34:07.896Z,37.67
2018-08-22T09:36:42.670Z,35.37
2018-08-22T09:39:15.071Z,35.07
2018-08-22T09:41:45.578Z,34.20
2018-08-22T09:44:14.844Z,35.80
2018-08-22T09:46:45.412Z,39.83
2018-08-22T09:49:14.104Z,34.20
2018-08-22T09:51:42.780Z,30.93
2018-08-22T09:54:13.359Z,39.40
2018-08-22T09:56:45.997Z,32.43
2018-08-22T09:59:14.756Z,34.33
2018-08-22T10:01:44.581Z,35.13
2018-08-22T10:04:14.310Z,31.60
2018-08-22T10:06:45.142Z,33.70
2018-08-22T10:09:15.791Z,34.27
2018-08-22T10:11:44.390Z,34.60
2018-08-22T10:14:16.747Z,27.73
2018-08-22T10:16:49.430Z,34.27
2018-08-22T10:19:20.208Z,34.63
2018-08-22T10:21:48.985Z,36.00
2018-08-22T10:24:22.085Z,33.60
2018-08-22T10:26:50.796Z,37.60
2018-08-22T10:29:21.379Z,39.13
2018-08-22T10:31:51.128Z,34.77
2018-08-22T10:34:21.880Z,30.73
2018-08-22T10:36:54.519Z,25.37
2018-08-22T10:39:23.287Z,38.20
2018-08-22T10:41:53.809Z,34.50
2018-08-22T10:44:22.545Z,40.07
2018-08-22T10:46:51.172Z,36.57
2018-08-22T10:49:19.901Z,37.10
2018-08-22T10:51:49.468Z,38.53
2018-08-22T10:54:21.860Z,40.27
2018-08-22T10:56:50.564Z,26.40
2018-08-22T10:59:29.862Z,33.37
2018-08-22T11:01:59.556Z,33.30
2018-08-22T11:04:29.142Z,30.77
2018-08-22T11:07:13.754Z,28.37
2018-08-22T11:09:43.447Z,30.07
2018-08-22T11:12:12.138Z,34.17
2018-08-22T11:14:42.606Z,31.63
2018-08-22T11:17:11.400Z,35.23
2018-08-22T11:19:40.943Z,34.57
2018-08-22T11:22:20.806Z,34.50
2018-08-22T11:25:03.275Z,33.27
2018-08-22T11:27:43.905Z,31.97
2018-08-22T11:30:23.603Z,28.83
2018-08-22T11:33:03.474Z,35.73
2018-08-22T11:35:32.636Z,34.77
2018-08-22T11:38:04.763Z,34.27
2018-08-22T11:40:34.404Z,31.10
2018-08-22T11:43:03.075Z,34.07
2018-08-22T11:45:32.706Z,32.33
2018-08-22T11:48:03.652Z,33.17
2018-08-22T11:50:32.324Z,34.97
2018-08-22T11:53:02.272Z,35.17
2018-08-22T11:55:35.554Z,34.20
2018-08-22T11:58:04.159Z,32.77
2018-08-22T12:00:38.292Z,33.83
2018-08-22T12:03:07.180Z,32.00
2018-08-22T12:05:39.387Z,37.17
2018-08-22T12:08:08.905Z,36.13
2018-08-22T12:10:37.633Z,41.30
2018-08-22T12:13:16.704Z,36.43
2018-08-22T12:15:46.303Z,32.83
2018-08-22T12:18:19.980Z,37.43
2018-08-22T12:21:02.726Z,37.43
2018-08-22T12:23:43.086Z,41.90
2018-08-22T12:26:12.732Z,38.47
2018-08-22T12:28:47.229Z,55.40
2018-08-22T12:31:15.972Z,41.47
2018-08-22T12:33:44.620Z,36.13
2018-08-22T12:36:14.250Z,38.93
2018-08-22T12:38:46.642Z,43.30
2018-08-22T12:41:16.202Z,38.50
2018-08-22T12:43:51.995Z,35.07
2018-08-22T12:46:31.724Z,35.47
2018-08-22T12:49:00.472Z,34.80
2018-08-22T12:51:29.134Z,30.93
2018-08-22T12:53:57.772Z,29.30
2018-08-22T12:56:30.788Z,33.47
2018-08-22T12:59:00.473Z,37.20
2018-08-22T13:01:29.144Z,32.33
2018-08-22T13:03:58.796Z,31.57
2018-08-22T13:06:27.475Z,32.90
2018-08-22T13:09:01.998Z,35.13
2018-08-22T13:11:30.779Z,30.80
2018-08-22T13:14:00.268Z,28.87
2018-08-22T13:16:30.820Z,31.90
2018-08-22T13:19:05.903Z,27.93
2018-08-22T13:21:34.710Z,31.67
2018-08-22T13:24:04.824Z,28.63
2018-08-22T13:26:43.351Z,28.13
2018-08-22T13:29:15.719Z,30.13
2018-08-22T13:31:44.462Z,28.70
2018-08-22T13:34:15.305Z,30.80
2018-08-22T13:36:46.146Z,29.10
2018-08-22T13:39:14.730Z,30.03
2018-08-22T13:41:43.559Z,33.30
2018-08-22T13:44:13.374Z,32.63
2018-08-22T13:46:43.042Z,35.43
2018-08-22T13:49:11.585Z,37.57
2018-08-22T13:51:40.354Z,35.83
2018-08-22T13:54:09.012Z,34.57
2018-08-22T13:56:39.536Z,37.10
2018-08-22T13:59:12.051Z,35.97
2018-08-22T14:01:46.775Z,35.27
2018-08-22T14:04:22.505Z,34.37
2018-08-22T14:06:55.252Z,38.10
2018-08-22T14:09:30.254Z,36.53
2018-08-22T14:12:02.649Z,38.63
2018-08-22T14:14:32.308Z,36.23
2018-08-22T14:17:10.452Z,36.47
2018-08-22T14:19:41.056Z,33.07
2018-08-22T14:22:13.541Z,35.43
2018-08-22T14:24:42.364Z,36.20
2018-08-22T14:27:11.240Z,38.73
2018-08-22T14:29:41.009Z,37.63
2018-08-22T14:32:09.700Z,36.70
2018-08-22T14:34:38.535Z,43.27
2018-08-22T14:37:07.516Z,35.60
2018-08-22T14:39:37.630Z,36.50
2018-08-22T14:42:13.052Z,37.37
2018-08-22T14:44:46.533Z,37.03
2018-08-22T14:47:20.314Z,36.77
2018-08-22T14:49:49.108Z,36.77
2018-08-22T14:52:17.741Z,38.50
2018-08-22T14:54:47.382Z,41.70
2018-08-22T14:57:16.685Z,38.40
2018-08-22T14:59:45.355Z,37.13
2018-08-22T15:02:19.043Z,33.97
2018-08-22T15:04:48.953Z,36.43
2018-08-22T15:07:17.658Z,36.33
2018-08-22T15:09:46.528Z,36.93
2018-08-22T15:12:16.195Z,37.07
2018-08-22T15:14:46.040Z,34.47
2018-08-22T15:17:18.364Z,33.07
2018-08-22T15:19:48.121Z,33.47
2018-08-22T15:22:18.965Z,33.70
2018-08-22T15:24:50.233Z,32.93
2018-08-22T15:27:20.279Z,35.03
2018-08-22T15:29:48.979Z,33.30
2018-08-22T15:32:17.675Z,33.83
2018-08-22T15:34:50.565Z,35.47
2018-08-22T15:37:19.926Z,30.03
2018-08-22T15:39:48.886Z,32.17
2018-08-22T15:42:17.682Z,37.93
2018-08-22T15:44:46.713Z,34.73
2018-08-22T15:47:15.759Z,36.27
2018-08-22T15:49:46.475Z,36.07
2018-08-22T15:52:17.345Z,40.83
2018-08-22T15:55:02.009Z,43.97
2018-08-22T15:57:48.389Z,36.97
2018-08-22T16:00:52.065Z,35.33
2018-08-22T16:03:25.489Z,37.43
2018-08-22T16:05:59.800Z,42.50
2018-08-22T16:08:29.126Z,36.10
2018-08-22T16:11:05.740Z,37.40
2018-08-22T16:13:36.340Z,35.73
2018-08-22T16:16:07.005Z,37.73
2018-08-22T16:18:41.528Z,32.10
2018-08-22T16:21:11.193Z,39.23
2018-08-22T16:23:41.957Z,34.60
2018-08-22T16:26:10.517Z,32.23
2018-08-22T16:28:53.605Z,34.80
2018-08-22T16:31:24.563Z,34.70
2018-08-22T16:33:55.142Z,29.33
2018-08-22T16:36:30.753Z,33.50
2018-08-22T16:39:00.558Z,31.33
2018-08-22T16:41:29.277Z,31.40
2018-08-22T16:43:59.080Z,32.27
2018-08-22T16:46:27.985Z,29.87
2018-08-22T16:49:02.624Z,30.13
2018-08-22T16:51:32.179Z,31.33
2018-08-22T16:54:09.422Z,30.40
2018-08-22T16:56:40.225Z,30.83
2018-08-22T16:59:10.872Z,26.33
2018-08-22T17:01:43.028Z,30.67
2018-08-22T17:04:17.401Z,30.77
2018-08-22T17:06:47.371Z,37.57
2018-08-22T17:09:27.369Z,26.43
2018-08-22T17:11:59.523Z,27.20
2018-08-22T17:14:30.345Z,26.30
2018-08-22T17:16:59.063Z,29.77
2018-08-22T17:19:31.691Z,30.20
2018-08-22T17:22:01.524Z,27.13
2018-08-22T17:24:35.217Z,26.20
2018-08-22T17:27:04.867Z,26.93
2018-08-22T17:29:51.523Z,25.70
2018-08-22T17:32:23.407Z,28.13
2018-08-22T17:34:59.327Z,26.87
2018-08-22T17:37:29.860Z,27.17
2018-08-22T17:40:11.504Z,27.20
2018-08-22T17:42:45.120Z,26.10
2018-08-22T17:45:23.815Z,27.70
2018-08-22T17:47:52.710Z,27.33
2018-08-22T17:50:23.425Z,27.70
2018-08-22T17:52:57.999Z,27.17
2018-08-22T17:55:26.743Z,25.30
2018-08-22T17:57:56.263Z,30.20
2018-08-22T18:00:24.953Z,29.50
2018-08-22T18:02:53.684Z,27.20
2018-08-22T18:05:23.431Z,31.33
2018-08-22T18:08:00.986Z,33.83
2018-08-22T18:10:30.014Z,32.70
2018-08-22T18:13:08.838Z,32.27
2018-08-22T18:15:53.574Z,30.90
2018-08-22T18:18:25.761Z,32.37
2018-08-22T18:20:57.597Z,31.83
2018-08-22T18:23:27.171Z,31.00
2018-08-22T18:26:02.342Z,31.13
2018-08-22T18:28:31.871Z,31.53
2018-08-22T18:31:04.862Z,30.03
2018-08-22T18:36:26.972Z,32.60
2018-08-22T18:39:01.827Z,35.57
2018-08-22T18:41:32.563Z,32.20
2018-08-22T18:44:02.396Z,29.20
2018-08-22T18:46:31.107Z,30.80
2018-08-22T18:49:01.441Z,31.87
2018-08-22T18:51:30.121Z,32.17
2018-08-22T18:54:01.708Z,31.83
2018-08-22T18:56:30.634Z,31.50
2018-08-22T18:59:31.037Z,32.90
2018-08-22T19:02:04.795Z,30.17
2018-08-22T19:04:37.639Z,29.50
2018-08-22T19:07:07.289Z,33.17
2018-08-22T19:09:36.051Z,26.77
2018-08-22T19:12:04.725Z,28.50
2018-08-22T19:14:44.617Z,31.00
2018-08-22T19:17:15.298Z,26.43
2018-08-22T19:19:48.955Z,25.60
2018-08-22T19:22:18.469Z,26.03
2018-08-22T19:25:04.407Z,29.03
2018-08-22T19:27:38.542Z,29.27
2018-08-22T19:30:15.543Z,28.17
2018-08-22T19:32:44.251Z,26.73
2018-08-22T19:35:15.134Z,31.67
2018-08-22T19:37:49.223Z,32.10
2018-08-22T19:40:18.066Z,27.63
2018-08-22T19:42:46.763Z,29.37
2018-08-22T19:45:16.667Z,32.10
2018-08-22T19:47:45.428Z,27.77
2018-08-22T19:50:16.255Z,32.17
2018-08-22T19:52:44.881Z,28.17
2018-08-22T19:55:14.790Z,28.30
2018-08-22T19:57:44.800Z,29.07
2018-08-22T20:00:14.682Z,28.43
2018-08-22T20:02:43.355Z,28.70
2018-08-22T20:05:12.703Z,28.17
2018-08-22T20:07:42.675Z,27.87
2018-08-22T20:10:11.661Z,31.97
2018-08-22T20:12:52.487Z,30.63
2018-08-22T20:15:24.180Z,29.10
2018-08-22T20:18:01.221Z,30.13
2018-08-22T20:20:30.738Z,28.13
2018-08-22T20:23:00.417Z,32.97
2018-08-22T20:25:29.566Z,31.30
2018-08-22T20:28:01.670Z,31.10
2018-08-22T20:30:31.448Z,29.70
2018-08-22T20:33:07.372Z,30.87
2018-08-22T20:35:37.589Z,32.70
2018-08-22T20:38:09.695Z,26.83
2018-08-22T20:40:39.462Z,29.83
2018-08-22T20:43:15.138Z,27.70
2018-08-22T20:45:46.063Z,28.87
2018-08-22T20:48:19.041Z,28.40
2018-08-22T20:50:48.952Z,27.70
2018-08-22T20:53:18.897Z,29.57
2018-08-22T20:55:51.536Z,25.17
2018-08-22T20:58:32.724Z,28.47
2018-08-22T21:01:02.419Z,26.40
2018-08-22T21:03:32.214Z,27.80
2018-08-22T21:06:08.985Z,26.97
2018-08-22T21:08:41.579Z,28.10
2018-08-22T21:11:21.508Z,30.27
2018-08-22T21:13:55.329Z,29.27
2018-08-22T21:16:28.114Z,26.63
2018-08-22T21:18:59.930Z,26.17
2018-08-22T21:21:29.669Z,32.20
2018-08-22T21:23:58.191Z,31.03
2018-08-22T21:26:39.659Z,29.20
2018-08-22T21:29:12.573Z,31.00
2018-08-22T21:31:41.193Z,44.50
2018-08-22T21:34:22.253Z,28.43
2018-08-22T21:36:50.803Z,28.33
2018-08-22T21:39:25.972Z,30.87
2018-08-22T21:41:54.963Z,29.83
2018-08-22T21:44:24.106Z,26.93
2018-08-22T21:47:16.213Z,30.20
2018-08-22T21:49:45.879Z,26.37
2018-08-22T21:52:26.594Z,27.43
2018-08-22T21:54:55.354Z,28.77
2018-08-22T21:57:24.875Z,26.30
2018-08-22T22:00:11.733Z,28.33
2018-08-22T22:02:44.246Z,28.27
2018-08-22T22:05:16.077Z,26.90
2018-08-22T22:07:44.792Z,30.80
2018-08-22T22:10:14.393Z,26.63
2018-08-22T22:12:43.078Z,31.50
2018-08-22T22:15:17.098Z,26.17
2018-08-22T22:17:46.556Z,32.53
2018-08-22T22:20:27.688Z,27.40
2018-08-22T22:23:07.326Z,29.83
2018-08-22T22:25:52.224Z,26.73
2018-08-22T22:28:37.588Z,29.17
2018-08-22T22:31:09.355Z,28.33
2018-08-22T22:33:43.492Z,31.37
2018-08-22T22:36:11.926Z,29.57
2018-08-22T22:38:51.048Z,28.70
2018-08-22T22:41:21.517Z,32.50
2018-08-22T22:44:01.568Z,29.37
2018-08-22T22:46:32.127Z,31.00
2018-08-22T22:49:06.291Z,32.50
2018-08-22T22:51:46.084Z,30.10
2018-08-22T22:54:16.750Z,30.00
2018-08-22T22:56:46.263Z,36.07
2018-08-22T22:59:15.894Z,33.50
2018-08-22T23:01:47.614Z,34.30
2018-08-22T23:04:17.343Z,31.47
2018-08-22T23:09:49.160Z,28.90
2018-08-22T23:12:44.090Z,30.03
2018-08-22T23:15:24.341Z,33.80
2018-08-22T23:18:03.932Z,32.93
2018-08-22T23:20:36.482Z,30.37
2018-08-22T23:23:22.044Z,29.17
2018-08-22T23:25:51.539Z,30.30
2018-08-22T23:28:21.126Z,31.53
2018-08-22T23:30:49.813Z,34.93
2018-08-22T23:33:29.812Z,31.97
2018-08-22T23:36:00.910Z,37.07
2018-08-22T23:38:37.310Z,32.83
2018-08-22T23:41:10.989Z,29.30
2018-08-22T23:43:44.926Z,29.90
2018-08-22T23:46:14.123Z,28.17
2018-08-22T23:48:44.630Z,32.00
2018-08-22T23:51:14.520Z,30.37
2018-08-22T23:53:49.227Z,29.60
2018-08-22T23:56:25.204Z,29.60
2018-08-22T23:59:06.450Z,33.93
